International Virtual Aviation Organisation

Eastern Europe and Northern Asia MCD

 
UAKD 101107Z 01011G16MPS 9999 BKN034 09/M01 Q1026 R04/0///65 NOSIG RMK QFE735/0980
QNH:(hPa/inHg/mmHg)1026 / 30.3 / 770
QFE:(hPa/inHg/mmHg)980 / 28.93 / 735
Temperature9
Dew Point-1
Visibility> 10000
Weather
Cloud CoverBKN (3400);
Transition Height10000 m./34100 ft.
Transition LevelFL350
SQUAWK